sensor_id;sensor_type;location;lat;lon;timestamp;pressure;altitude;pressure_sealevel;temperature;humidity
56632;BME280;42503;39.928;-75.152;2023-05-07T00:01:19;101995.38;;;22.44;45.98
56632;BME280;42503;39.928;-75.152;2023-05-07T00:11:20;102013.53;;;22.47;46.11
56632;BME280;42503;39.928;-75.152;2023-05-07T00:21:21;102012.38;;;22.43;46.21
56632;BME280;42503;39.928;-75.152;2023-05-07T00:31:23;101926.53;;;21.86;45.81
56632;BME280;42503;39.928;-75.152;2023-05-07T00:41:24;102010.16;;;22.45;45.99
56632;BME280;42503;39.928;-75.152;2023-05-07T00:51:26;101929.06;;;21.92;46.04
56632;BME280;42503;39.928;-75.152;2023-05-07T01:01:28;102021.31;;;22.45;45.93
56632;BME280;42503;39.928;-75.152;2023-05-07T01:11:32;102023.00;;;22.46;46.00
56632;BME280;42503;39.928;-75.152;2023-05-07T01:21:36;102015.81;;;22.50;45.77
56632;BME280;42503;39.928;-75.152;2023-05-07T01:31:40;102011.91;;;22.51;46.04
56632;BME280;42503;39.928;-75.152;2023-05-07T01:41:43;102027.00;;;22.55;45.76
56632;BME280;42503;39.928;-75.152;2023-05-07T01:51:44;101997.34;;;22.49;45.81
56632;BME280;42503;39.928;-75.152;2023-05-07T02:01:46;102002.09;;;22.48;46.18
56632;BME280;42503;39.928;-75.152;2023-05-07T02:11:48;101897.59;;;21.92;45.76
56632;BME280;42503;39.928;-75.152;2023-05-07T02:21:50;102008.06;;;22.62;46.02
56632;BME280;42503;39.928;-75.152;2023-05-07T02:31:52;102008.06;;;22.62;46.25
56632;BME280;42503;39.928;-75.152;2023-05-07T02:41:56;102006.91;;;22.58;46.11
56632;BME280;42503;39.928;-75.152;2023-05-07T02:52:00;102025.69;;;22.68;46.24
56632;BME280;42503;39.928;-75.152;2023-05-07T03:02:02;102018.19;;;22.68;46.15
56632;BME280;42503;39.928;-75.152;2023-05-07T03:12:03;102011.97;;;22.61;45.71
56632;BME280;42503;39.928;-75.152;2023-05-07T03:22:04;102012.59;;;22.68;45.79
56632;BME280;42503;39.928;-75.152;2023-05-07T03:32:06;101989.25;;;22.47;46.06
56632;BME280;42503;39.928;-75.152;2023-05-07T03:42:10;102030.47;;;22.72;45.86
56632;BME280;42503;39.928;-75.152;2023-05-07T03:52:11;102037.75;;;22.73;45.52
56632;BME280;42503;39.928;-75.152;2023-05-07T04:02:13;102024.84;;;22.67;45.85
56632;BME280;42503;39.928;-75.152;2023-05-07T04:12:15;102023.22;;;22.71;45.75
56632;BME280;42503;39.928;-75.152;2023-05-07T04:22:19;102019.25;;;22.67;45.55
56632;BME280;42503;39.928;-75.152;2023-05-07T04:32:23;102013.72;;;22.72;45.43
56632;BME280;42503;39.928;-75.152;2023-05-07T04:42:25;101998.34;;;22.65;45.77
56632;BME280;42503;39.928;-75.152;2023-05-07T04:52:27;101993.06;;;22.68;45.53
56632;BME280;42503;39.928;-75.152;2023-05-07T05:02:31;101987.75;;;22.67;45.72
56632;BME280;42503;39.928;-75.152;2023-05-07T05:12:35;101961.41;;;22.52;45.51
56632;BME280;42503;39.928;-75.152;2023-05-07T05:22:41;101982.47;;;22.70;45.53
56632;BME280;42503;39.928;-75.152;2023-05-07T05:32:45;101986.38;;;22.69;45.46
56632;BME280;42503;39.928;-75.152;2023-05-07T05:42:47;101974.38;;;22.69;45.73
56632;BME280;42503;39.928;-75.152;2023-05-07T05:52:48;101964.06;;;22.69;45.73
56632;BME280;42503;39.928;-75.152;2023-05-07T06:02:49;101956.22;;;22.66;45.80
56632;BME280;42503;39.928;-75.152;2023-05-07T06:12:51;101960.66;;;22.67;45.85
56632;BME280;42503;39.928;-75.152;2023-05-07T06:22:52;101941.09;;;22.57;45.74
56632;BME280;42503;39.928;-75.152;2023-05-07T06:32:53;101939.97;;;22.58;45.89
56632;BME280;42503;39.928;-75.152;2023-05-07T06:42:55;101955.91;;;22.63;45.74
56632;BME280;42503;39.928;-75.152;2023-05-07T06:52:56;101945.84;;;22.62;45.96
56632;BME280;42503;39.928;-75.152;2023-05-07T07:02:59;101943.91;;;22.62;45.84
56632;BME280;42503;39.928;-75.152;2023-05-07T07:13:05;101960.91;;;22.61;45.95
56632;BME280;42503;39.928;-75.152;2023-05-07T07:23:06;101953.38;;;22.61;45.81
56632;BME280;42503;39.928;-75.152;2023-05-07T07:33:07;101932.13;;;22.50;45.87
56632;BME280;42503;39.928;-75.152;2023-05-07T07:43:09;101943.88;;;22.57;45.74
56632;BME280;42503;39.928;-75.152;2023-05-07T07:53:10;101950.28;;;22.57;45.68
56632;BME280;42503;39.928;-75.152;2023-05-07T08:03:11;101940.53;;;22.55;45.65
56632;BME280;42503;39.928;-75.152;2023-05-07T08:13:13;101914.19;;;22.41;45.81
56632;BME280;42503;39.928;-75.152;2023-05-07T08:23:15;101935.75;;;22.50;46.04
56632;BME280;42503;39.928;-75.152;2023-05-07T08:33:16;101947.16;;;22.49;45.90
56632;BME280;42503;39.928;-75.152;2023-05-07T08:43:18;101937.09;;;22.48;45.95
56632;BME280;42503;39.928;-75.152;2023-05-07T08:53:20;101930.97;;;22.46;46.05
56632;BME280;42503;39.928;-75.152;2023-05-07T09:03:22;101918.09;;;22.45;46.05
56632;BME280;42503;39.928;-75.152;2023-05-07T09:13:23;101918.09;;;22.45;46.17
56632;BME280;42503;39.928;-75.152;2023-05-07T09:23:24;101917.03;;;22.46;45.83
56632;BME280;42503;39.928;-75.152;2023-05-07T09:33:27;101895.25;;;22.43;45.76
56632;BME280;42503;39.928;-75.152;2023-05-07T09:43:36;101900.25;;;22.41;45.85
56632;BME280;42503;39.928;-75.152;2023-05-07T09:53:38;101893.28;;;22.43;45.66
56632;BME280;42503;39.928;-75.152;2023-05-07T10:03:44;101897.47;;;22.41;45.88
56632;BME280;42503;39.928;-75.152;2023-05-07T10:13:46;101880.91;;;22.29;45.60
56632;BME280;42503;39.928;-75.152;2023-05-07T10:23:58;101888.22;;;22.40;45.72
56632;BME280;42503;39.928;-75.152;2023-05-07T10:34:09;101899.13;;;22.37;45.61
56632;BME280;42503;39.928;-75.152;2023-05-07T10:44:28;101905.84;;;22.41;45.18
56632;BME280;42503;39.928;-75.152;2023-05-07T10:54:30;101907.50;;;22.42;44.81
56632;BME280;42503;39.928;-75.152;2023-05-07T11:04:32;101908.06;;;22.44;43.91
56632;BME280;42503;39.928;-75.152;2023-05-07T11:24:46;101859.97;;;22.26;43.83
56632;BME280;42503;39.928;-75.152;2023-05-07T11:34:54;101847.16;;;22.25;43.71
56632;BME280;42503;39.928;-75.152;2023-05-07T11:44:56;101869.59;;;22.41;44.12
56632;BME280;42503;39.928;-75.152;2023-05-07T11:54:59;101847.28;;;22.41;44.20
56632;BME280;42503;39.928;-75.152;2023-05-07T12:05:01;101798.91;;;22.25;44.49
56632;BME280;42503;39.928;-75.152;2023-05-07T12:15:05;101806.44;;;22.24;44.55
56632;BME280;42503;39.928;-75.152;2023-05-07T12:25:07;101850.63;;;22.43;45.05
56632;BME280;42503;39.928;-75.152;2023-05-07T12:35:08;101791.34;;;22.15;44.94
56632;BME280;42503;39.928;-75.152;2023-05-07T12:45:15;101844.50;;;22.46;44.72
56632;BME280;42503;39.928;-75.152;2023-05-07T12:55:17;101822.22;;;22.51;44.50
56632;BME280;42503;39.928;-75.152;2023-05-07T13:05:21;101816.09;;;22.54;44.56
56632;BME280;42503;39.928;-75.152;2023-05-07T13:15:22;101799.34;;;22.54;44.53
56632;BME280;42503;39.928;-75.152;2023-05-07T13:25:27;101775.84;;;22.40;44.75
56632;BME280;42503;39.928;-75.152;2023-05-07T13:35:28;101754.69;;;22.49;44.54
56632;BME280;42503;39.928;-75.152;2023-05-07T13:45:30;101746.56;;;22.37;45.00
56632;BME280;42503;39.928;-75.152;2023-05-07T13:55:31;101727.38;;;22.46;45.08
56632;BME280;42503;39.928;-75.152;2023-05-07T14:05:51;101738.25;;;22.52;44.82
56632;BME280;42503;39.928;-75.152;2023-05-07T14:15:52;101692.16;;;22.29;44.89
56632;BME280;42503;39.928;-75.152;2023-05-07T14:25:53;101724.91;;;22.54;44.95
56632;BME280;42503;39.928;-75.152;2023-05-07T14:35:55;101684.38;;;22.31;44.85
56632;BME280;42503;39.928;-75.152;2023-05-07T14:45:56;101701.19;;;22.57;44.77
56632;BME280;42503;39.928;-75.152;2023-05-07T14:55:58;101661.50;;;22.40;44.82
56632;BME280;42503;39.928;-75.152;2023-05-07T15:06:01;101649.00;;;22.42;44.68
56632;BME280;42503;39.928;-75.152;2023-05-07T15:16:06;101633.09;;;22.48;44.89
56632;BME280;42503;39.928;-75.152;2023-05-07T15:26:07;101637.03;;;22.62;44.60
56632;BME280;42503;39.928;-75.152;2023-05-07T15:36:09;101625.63;;;22.64;44.42
56632;BME280;42503;39.928;-75.152;2023-05-07T15:46:10;101608.88;;;22.64;44.86
56632;BME280;42503;39.928;-75.152;2023-05-07T15:56:12;101605.25;;;22.68;44.46
56632;BME280;42503;39.928;-75.152;2023-05-07T16:06:13;101601.34;;;22.69;44.61
56632;BME280;42503;39.928;-75.152;2023-05-07T16:16:14;101569.84;;;22.69;44.57
56632;BME280;42503;39.928;-75.152;2023-05-07T16:26:16;101519.59;;;22.48;44.64
56632;BME280;42503;39.928;-75.152;2023-05-07T16:36:17;101504.25;;;22.51;44.28
56632;BME280;42503;39.928;-75.152;2023-05-07T16:46:22;101520.44;;;22.74;44.33
56632;BME280;42503;39.928;-75.152;2023-05-07T16:56:24;101480.28;;;22.65;44.38
56632;BME280;42503;39.928;-75.152;2023-05-07T17:06:26;101474.97;;;22.74;44.28
56632;BME280;42503;39.928;-75.152;2023-05-07T17:16:27;101467.97;;;22.81;44.21
56632;BME280;42503;39.928;-75.152;2023-05-07T17:26:28;101432.28;;;22.78;44.43
56632;BME280;42503;39.928;-75.152;2023-05-07T17:36:31;101412.16;;;22.81;44.16
56632;BME280;42503;39.928;-75.152;2023-05-07T17:46:33;101370.34;;;22.66;44.41
56632;BME280;42503;39.928;-75.152;2023-05-07T17:56:42;101338.28;;;22.58;44.08
56632;BME280;42503;39.928;-75.152;2023-05-07T18:06:43;101365.28;;;22.89;44.00
56632;BME280;42503;39.928;-75.152;2023-05-07T18:16:45;101356.06;;;22.88;44.25
56632;BME280;42503;39.928;-75.152;2023-05-07T18:26:46;101339.06;;;22.90;44.21
56632;BME280;42503;39.928;-75.152;2023-05-07T18:36:49;101329.56;;;22.91;44.17
56632;BME280;42503;39.928;-75.152;2023-05-07T18:46:50;101304.44;;;22.91;44.16
56632;BME280;42503;39.928;-75.152;2023-05-07T18:56:51;101254.59;;;22.69;43.93
56632;BME280;42503;39.928;-75.152;2023-05-07T19:06:53;101275.97;;;22.94;44.38
56632;BME280;42503;39.928;-75.152;2023-05-07T19:17:00;101246.41;;;22.93;44.45
56632;BME280;42503;39.928;-75.152;2023-05-07T19:27:01;101200.66;;;22.83;44.26
56632;BME280;42503;39.928;-75.152;2023-05-07T19:37:14;101188.88;;;23.02;44.05
56632;BME280;42503;39.928;-75.152;2023-05-07T19:47:16;101175.47;;;22.99;44.28
56632;BME280;42503;39.928;-75.152;2023-05-07T19:57:17;101142.84;;;22.94;44.17
56632;BME280;42503;39.928;-75.152;2023-05-07T20:07:22;101143.63;;;23.05;44.09
56632;BME280;42503;39.928;-75.152;2023-05-07T20:17:26;101118.75;;;23.08;44.23
56632;BME280;42503;39.928;-75.152;2023-05-07T20:27:27;101083.19;;;22.85;43.93
56632;BME280;42503;39.928;-75.152;2023-05-07T20:37:29;101101.16;;;23.08;44.21
56632;BME280;42503;39.928;-75.152;2023-05-07T20:47:31;101078.88;;;23.03;44.25
56632;BME280;42503;39.928;-75.152;2023-05-07T20:57:33;101075.16;;;23.13;44.23
56632;BME280;42503;39.928;-75.152;2023-05-07T21:07:35;101071.59;;;23.07;44.24
56632;BME280;42503;39.928;-75.152;2023-05-07T21:17:36;101050.44;;;23.01;44.33
56632;BME280;42503;39.928;-75.152;2023-05-07T21:27:37;101054.28;;;23.10;44.33
56632;BME280;42503;39.928;-75.152;2023-05-07T21:37:41;101058.41;;;23.13;44.27
56632;BME280;42503;39.928;-75.152;2023-05-07T21:47:42;101052.25;;;23.16;44.16
56632;BME280;42503;39.928;-75.152;2023-05-07T21:57:44;101034.22;;;23.03;44.47
56632;BME280;42503;39.928;-75.152;2023-05-07T22:07:45;101033.09;;;23.04;44.63
56632;BME280;42503;39.928;-75.152;2023-05-07T22:17:49;101020.22;;;23.08;44.84
56632;BME280;42503;39.928;-75.152;2023-05-07T22:27:53;101011.03;;;23.07;44.91
56632;BME280;42503;39.928;-75.152;2023-05-07T22:37:55;100977.38;;;22.94;45.30
56632;BME280;42503;39.928;-75.152;2023-05-07T22:47:56;101008.44;;;23.16;45.09
56632;BME280;42503;39.928;-75.152;2023-05-07T22:58:00;101005.06;;;23.19;44.98
56632;BME280;42503;39.928;-75.152;2023-05-07T23:08:02;101004.75;;;23.21;44.99
56632;BME280;42503;39.928;-75.152;2023-05-07T23:18:04;100990.47;;;23.22;44.98
56632;BME280;42503;39.928;-75.152;2023-05-07T23:28:08;100956.56;;;23.10;44.99
56632;BME280;42503;39.928;-75.152;2023-05-07T23:38:12;100990.47;;;23.22;45.14
56632;BME280;42503;39.928;-75.152;2023-05-07T23:48:13;100848.44;;;22.39;45.20
56632;BME280;42503;39.928;-75.152;2023-05-07T23:58:14;100968.09;;;23.27;45.16
